sensor_id;sensor_type;location;lat;lon;timestamp;P1;durP1;ratioP1;P2;durP2;ratioP2
18378;SDS011;27025;51.986;5.984;2023-03-01T00:02:13;5.80;;;5.20;;
18378;SDS011;27025;51.986;5.984;2023-03-01T00:04:39;6.40;;;5.80;;
18378;SDS011;27025;51.986;5.984;2023-03-01T00:07:05;6.05;;;5.45;;
18378;SDS011;27025;51.986;5.984;2023-03-01T00:09:31;6.22;;;5.63;;
18378;SDS011;27025;51.986;5.984;2023-03-01T00:11:57;6.82;;;5.80;;
18378;SDS011;27025;51.986;5.984;2023-03-01T00:14:23;5.90;;;5.30;;
18378;SDS011;27025;51.986;5.984;2023-03-01T00:16:49;5.75;;;5.25;;
18378;SDS011;27025;51.986;5.984;2023-03-01T00:19:16;6.13;;;5.53;;
18378;SDS011;27025;51.986;5.984;2023-03-01T00:21:42;7.25;;;5.65;;
18378;SDS011;27025;51.986;5.984;2023-03-01T00:24:09;7.32;;;5.60;;
18378;SDS011;27025;51.986;5.984;2023-03-01T00:26:35;6.37;;;5.47;;
18378;SDS011;27025;51.986;5.984;2023-03-01T00:29:01;6.47;;;5.57;;
18378;SDS011;27025;51.986;5.984;2023-03-01T00:31:28;6.40;;;5.80;;
18378;SDS011;27025;51.986;5.984;2023-03-01T00:33:55;6.68;;;5.80;;
18378;SDS011;27025;51.986;5.984;2023-03-01T00:36:23;6.32;;;5.72;;
18378;SDS011;27025;51.986;5.984;2023-03-01T00:38:49;7.03;;;5.82;;
18378;SDS011;27025;51.986;5.984;2023-03-01T00:41:16;8.00;;;5.37;;
18378;SDS011;27025;51.986;5.984;2023-03-01T00:43:43;6.15;;;5.50;;
18378;SDS011;27025;51.986;5.984;2023-03-01T00:46:10;6.45;;;5.80;;
18378;SDS011;27025;51.986;5.984;2023-03-01T00:48:36;6.73;;;6.00;;
18378;SDS011;27025;51.986;5.984;2023-03-01T00:51:07;6.72;;;6.00;;
18378;SDS011;27025;51.986;5.984;2023-03-01T00:53:33;7.10;;;6.40;;
18378;SDS011;27025;51.986;5.984;2023-03-01T00:55:59;6.20;;;5.60;;
18378;SDS011;27025;51.986;5.984;2023-03-01T00:58:25;7.05;;;6.20;;
18378;SDS011;27025;51.986;5.984;2023-03-01T01:00:52;6.80;;;6.10;;
18378;SDS011;27025;51.986;5.984;2023-03-01T01:03:18;6.57;;;5.97;;
18378;SDS011;27025;51.986;5.984;2023-03-01T01:05:44;7.07;;;6.38;;
18378;SDS011;27025;51.986;5.984;2023-03-01T01:08:10;7.50;;;6.53;;
18378;SDS011;27025;51.986;5.984;2023-03-01T01:10:36;6.80;;;6.20;;
18378;SDS011;27025;51.986;5.984;2023-03-01T01:13:02;6.53;;;5.93;;
18378;SDS011;27025;51.986;5.984;2023-03-01T01:15:28;6.40;;;5.80;;
18378;SDS011;27025;51.986;5.984;2023-03-01T01:17:54;6.88;;;6.18;;
18378;SDS011;27025;51.986;5.984;2023-03-01T01:20:20;7.00;;;6.30;;
18378;SDS011;27025;51.986;5.984;2023-03-01T01:22:46;7.70;;;6.90;;
18378;SDS011;27025;51.986;5.984;2023-03-01T01:25:12;7.47;;;6.68;;
18378;SDS011;27025;51.986;5.984;2023-03-01T01:27:38;7.60;;;6.90;;
18378;SDS011;27025;51.986;5.984;2023-03-01T01:30:05;7.43;;;6.63;;
18378;SDS011;27025;51.986;5.984;2023-03-01T01:32:31;8.45;;;7.50;;
18378;SDS011;27025;51.986;5.984;2023-03-01T01:34:57;8.38;;;7.57;;
18378;SDS011;27025;51.986;5.984;2023-03-01T01:37:23;8.43;;;7.60;;
18378;SDS011;27025;51.986;5.984;2023-03-01T01:39:55;8.77;;;7.60;;
18378;SDS011;27025;51.986;5.984;2023-03-01T01:42:21;9.10;;;8.20;;
18378;SDS011;27025;51.986;5.984;2023-03-01T01:44:47;8.95;;;8.05;;
18378;SDS011;27025;51.986;5.984;2023-03-01T01:49:44;9.50;;;8.60;;
18378;SDS011;27025;51.986;5.984;2023-03-01T01:52:12;10.00;;;9.00;;
18378;SDS011;27025;51.986;5.984;2023-03-01T01:54:41;9.88;;;8.88;;
18378;SDS011;27025;51.986;5.984;2023-03-01T01:57:09;10.23;;;9.10;;
18378;SDS011;27025;51.986;5.984;2023-03-01T01:59:36;11.52;;;9.13;;
18378;SDS011;27025;51.986;5.984;2023-03-01T02:02:04;10.15;;;8.90;;
18378;SDS011;27025;51.986;5.984;2023-03-01T02:04:31;10.00;;;9.00;;
18378;SDS011;27025;51.986;5.984;2023-03-01T02:06:58;10.23;;;9.23;;
18378;SDS011;27025;51.986;5.984;2023-03-01T02:09:26;10.23;;;9.13;;
18378;SDS011;27025;51.986;5.984;2023-03-01T02:11:52;10.23;;;9.27;;
18378;SDS011;27025;51.986;5.984;2023-03-01T02:14:19;10.15;;;9.15;;
18378;SDS011;27025;51.986;5.984;2023-03-01T02:16:45;10.65;;;9.32;;
18378;SDS011;27025;51.986;5.984;2023-03-01T02:19:15;10.13;;;9.18;;
18378;SDS011;27025;51.986;5.984;2023-03-01T02:24:28;9.98;;;8.95;;
18378;SDS011;27025;51.986;5.984;2023-03-01T02:26:57;10.32;;;9.20;;
18378;SDS011;27025;51.986;5.984;2023-03-01T02:29:23;11.32;;;9.30;;
18378;SDS011;27025;51.986;5.984;2023-03-01T02:31:50;9.88;;;8.90;;
18378;SDS011;27025;51.986;5.984;2023-03-01T02:34:18;9.55;;;8.65;;
18378;SDS011;27025;51.986;5.984;2023-03-01T02:36:47;10.35;;;9.25;;
18378;SDS011;27025;51.986;5.984;2023-03-01T02:39:14;9.80;;;8.90;;
18378;SDS011;27025;51.986;5.984;2023-03-01T02:41:46;9.40;;;8.50;;
18378;SDS011;27025;51.986;5.984;2023-03-01T02:44:13;9.60;;;8.60;;
18378;SDS011;27025;51.986;5.984;2023-03-01T02:46:43;10.02;;;9.02;;
18378;SDS011;27025;51.986;5.984;2023-03-01T02:49:43;9.48;;;8.57;;
18378;SDS011;27025;51.986;5.984;2023-03-01T02:52:21;9.48;;;8.57;;
18378;SDS011;27025;51.986;5.984;2023-03-01T02:57:20;9.77;;;8.77;;
18378;SDS011;27025;51.986;5.984;2023-03-01T02:59:47;9.90;;;8.90;;
18378;SDS011;27025;51.986;5.984;2023-03-01T03:04:47;10.13;;;9.13;;
18378;SDS011;27025;51.986;5.984;2023-03-01T03:07:13;10.27;;;9.13;;
18378;SDS011;27025;51.986;5.984;2023-03-01T03:09:39;10.13;;;9.02;;
18378;SDS011;27025;51.986;5.984;2023-03-01T03:12:05;10.13;;;9.13;;
18378;SDS011;27025;51.986;5.984;2023-03-01T03:14:31;10.15;;;9.15;;
18378;SDS011;27025;51.986;5.984;2023-03-01T03:16:59;9.95;;;8.95;;
18378;SDS011;27025;51.986;5.984;2023-03-01T03:19:25;10.05;;;9.05;;
18378;SDS011;27025;51.986;5.984;2023-03-01T03:21:51;9.80;;;8.80;;
18378;SDS011;27025;51.986;5.984;2023-03-01T03:24:17;9.77;;;8.73;;
18378;SDS011;27025;51.986;5.984;2023-03-01T03:26:43;9.30;;;8.40;;
18378;SDS011;27025;51.986;5.984;2023-03-01T03:29:09;9.70;;;8.80;;
18378;SDS011;27025;51.986;5.984;2023-03-01T03:31:35;9.77;;;8.88;;
18378;SDS011;27025;51.986;5.984;2023-03-01T03:34:01;9.37;;;8.47;;
18378;SDS011;27025;51.986;5.984;2023-03-01T03:36:27;9.57;;;8.57;;
18378;SDS011;27025;51.986;5.984;2023-03-01T03:38:53;9.30;;;8.40;;
18378;SDS011;27025;51.986;5.984;2023-03-01T03:41:19;9.60;;;8.60;;
18378;SDS011;27025;51.986;5.984;2023-03-01T03:43:46;10.98;;;8.65;;
18378;SDS011;27025;51.986;5.984;2023-03-01T03:46:12;9.75;;;8.75;;
18378;SDS011;27025;51.986;5.984;2023-03-01T03:48:42;8.80;;;7.95;;
18378;SDS011;27025;51.986;5.984;2023-03-01T03:51:13;8.68;;;7.88;;
18378;SDS011;27025;51.986;5.984;2023-03-01T03:53:39;9.38;;;8.38;;
18378;SDS011;27025;51.986;5.984;2023-03-01T03:56:05;9.30;;;8.40;;
18378;SDS011;27025;51.986;5.984;2023-03-01T03:58:31;9.38;;;8.02;;
18378;SDS011;27025;51.986;5.984;2023-03-01T04:00:58;8.77;;;7.90;;
18378;SDS011;27025;51.986;5.984;2023-03-01T04:03:26;8.88;;;8.02;;
18378;SDS011;27025;51.986;5.984;2023-03-01T04:05:52;8.88;;;7.97;;
18378;SDS011;27025;51.986;5.984;2023-03-01T04:08:19;8.77;;;7.85;;
18378;SDS011;27025;51.986;5.984;2023-03-01T04:10:47;8.70;;;7.85;;
18378;SDS011;27025;51.986;5.984;2023-03-01T04:13:15;8.75;;;7.70;;
18378;SDS011;27025;51.986;5.984;2023-03-01T04:15:41;8.32;;;7.53;;
18378;SDS011;27025;51.986;5.984;2023-03-01T04:18:14;9.45;;;7.30;;
18378;SDS011;27025;51.986;5.984;2023-03-01T04:20:40;7.90;;;7.10;;
18378;SDS011;27025;51.986;5.984;2023-03-01T04:23:08;8.40;;;7.50;;
18378;SDS011;27025;51.986;5.984;2023-03-01T04:28:07;8.38;;;7.38;;
18378;SDS011;27025;51.986;5.984;2023-03-01T04:30:34;7.47;;;6.70;;
18378;SDS011;27025;51.986;5.984;2023-03-01T04:33:10;8.85;;;7.50;;
18378;SDS011;27025;51.986;5.984;2023-03-01T04:35:36;7.47;;;6.80;;
18378;SDS011;27025;51.986;5.984;2023-03-01T04:38:04;8.05;;;7.05;;
18378;SDS011;27025;51.986;5.984;2023-03-01T04:40:30;7.43;;;6.70;;
18378;SDS011;27025;51.986;5.984;2023-03-01T04:42:56;7.37;;;6.67;;
18378;SDS011;27025;51.986;5.984;2023-03-01T04:45:22;8.13;;;7.00;;
18378;SDS011;27025;51.986;5.984;2023-03-01T04:47:48;7.43;;;6.72;;
18378;SDS011;27025;51.986;5.984;2023-03-01T04:50:17;8.57;;;7.00;;
18378;SDS011;27025;51.986;5.984;2023-03-01T04:52:45;7.72;;;6.85;;
18378;SDS011;27025;51.986;5.984;2023-03-01T04:55:11;7.35;;;6.65;;
18378;SDS011;27025;51.986;5.984;2023-03-01T04:57:37;7.47;;;6.32;;
18378;SDS011;27025;51.986;5.984;2023-03-01T05:00:04;6.97;;;6.28;;
18378;SDS011;27025;51.986;5.984;2023-03-01T05:02:53;8.25;;;6.85;;
18378;SDS011;27025;51.986;5.984;2023-03-01T05:05:24;7.05;;;6.40;;
18378;SDS011;27025;51.986;5.984;2023-03-01T05:07:52;7.13;;;6.43;;
18378;SDS011;27025;51.986;5.984;2023-03-01T05:10:18;6.93;;;6.30;;
18378;SDS011;27025;51.986;5.984;2023-03-01T05:12:44;8.57;;;6.70;;
18378;SDS011;27025;51.986;5.984;2023-03-01T05:15:11;7.65;;;6.95;;
18378;SDS011;27025;51.986;5.984;2023-03-01T05:17:37;7.55;;;6.72;;
18378;SDS011;27025;51.986;5.984;2023-03-01T05:20:03;7.53;;;6.72;;
18378;SDS011;27025;51.986;5.984;2023-03-01T05:22:34;7.45;;;6.55;;
18378;SDS011;27025;51.986;5.984;2023-03-01T05:25:00;8.27;;;6.72;;
18378;SDS011;27025;51.986;5.984;2023-03-01T05:27:26;7.88;;;6.97;;
18378;SDS011;27025;51.986;5.984;2023-03-01T05:29:52;7.40;;;6.70;;
18378;SDS011;27025;51.986;5.984;2023-03-01T05:32:18;7.43;;;6.68;;
18378;SDS011;27025;51.986;5.984;2023-03-01T05:34:44;7.93;;;6.90;;
18378;SDS011;27025;51.986;5.984;2023-03-01T05:37:11;7.65;;;6.93;;
18378;SDS011;27025;51.986;5.984;2023-03-01T05:39:38;8.33;;;7.47;;
18378;SDS011;27025;51.986;5.984;2023-03-01T05:42:04;8.02;;;7.22;;
18378;SDS011;27025;51.986;5.984;2023-03-01T05:44:30;8.43;;;7.57;;
18378;SDS011;27025;51.986;5.984;2023-03-01T05:46:56;8.00;;;7.20;;
18378;SDS011;27025;51.986;5.984;2023-03-01T05:49:22;8.40;;;7.38;;
18378;SDS011;27025;51.986;5.984;2023-03-01T05:51:50;8.02;;;7.22;;
18378;SDS011;27025;51.986;5.984;2023-03-01T05:54:16;7.80;;;7.00;;
18378;SDS011;27025;51.986;5.984;2023-03-01T05:56:42;8.30;;;6.75;;
18378;SDS011;27025;51.986;5.984;2023-03-01T05:59:09;8.82;;;7.07;;
18378;SDS011;27025;51.986;5.984;2023-03-01T06:01:36;8.27;;;7.38;;
18378;SDS011;27025;51.986;5.984;2023-03-01T06:04:03;7.78;;;7.00;;
18378;SDS011;27025;51.986;5.984;2023-03-01T06:06:29;8.02;;;7.20;;
18378;SDS011;27025;51.986;5.984;2023-03-01T06:08:58;8.25;;;7.45;;
18378;SDS011;27025;51.986;5.984;2023-03-01T06:11:24;9.77;;;7.95;;
18378;SDS011;27025;51.986;5.984;2023-03-01T06:13:50;8.35;;;7.50;;
18378;SDS011;27025;51.986;5.984;2023-03-01T06:16:17;8.68;;;7.22;;
18378;SDS011;27025;51.986;5.984;2023-03-01T06:18:43;9.27;;;7.60;;
18378;SDS011;27025;51.986;5.984;2023-03-01T06:21:09;9.55;;;7.90;;
18378;SDS011;27025;51.986;5.984;2023-03-01T06:23:35;8.68;;;7.78;;
18378;SDS011;27025;51.986;5.984;2023-03-01T06:26:04;9.70;;;8.23;;
18378;SDS011;27025;51.986;5.984;2023-03-01T06:28:30;9.07;;;7.68;;
18378;SDS011;27025;51.986;5.984;2023-03-01T06:30:56;10.30;;;7.90;;
18378;SDS011;27025;51.986;5.984;2023-03-01T06:33:22;8.00;;;7.20;;
18378;SDS011;27025;51.986;5.984;2023-03-01T06:35:49;9.63;;;8.00;;
18378;SDS011;27025;51.986;5.984;2023-03-01T06:38:15;8.55;;;7.70;;
18378;SDS011;27025;51.986;5.984;2023-03-01T06:40:44;9.30;;;8.13;;
18378;SDS011;27025;51.986;5.984;2023-03-01T06:43:10;8.70;;;7.90;;
18378;SDS011;27025;51.986;5.984;2023-03-01T06:45:36;9.05;;;8.10;;
18378;SDS011;27025;51.986;5.984;2023-03-01T06:48:03;9.20;;;8.18;;
18378;SDS011;27025;51.986;5.984;2023-03-01T06:50:29;9.30;;;8.40;;
18378;SDS011;27025;51.986;5.984;2023-03-01T06:52:56;9.63;;;8.60;;
18378;SDS011;27025;51.986;5.984;2023-03-01T06:55:22;10.45;;;8.38;;
18378;SDS011;27025;51.986;5.984;2023-03-01T06:57:48;10.85;;;8.38;;
18378;SDS011;27025;51.986;5.984;2023-03-01T07:00:14;9.65;;;8.43;;
18378;SDS011;27025;51.986;5.984;2023-03-01T07:02:40;11.75;;;8.65;;
18378;SDS011;27025;51.986;5.984;2023-03-01T07:05:06;9.67;;;8.30;;
18378;SDS011;27025;51.986;5.984;2023-03-01T07:07:32;11.05;;;8.35;;
18378;SDS011;27025;51.986;5.984;2023-03-01T07:09:58;11.23;;;8.30;;
18378;SDS011;27025;51.986;5.984;2023-03-01T07:12:25;10.68;;;8.73;;
18378;SDS011;27025;51.986;5.984;2023-03-01T07:14:51;9.32;;;8.43;;
18378;SDS011;27025;51.986;5.984;2023-03-01T07:17:16;10.83;;;8.57;;
18378;SDS011;27025;51.986;5.984;2023-03-01T07:19:43;10.52;;;8.35;;
18378;SDS011;27025;51.986;5.984;2023-03-01T07:22:10;10.55;;;8.10;;
18378;SDS011;27025;51.986;5.984;2023-03-01T07:24:36;10.18;;;8.60;;
18378;SDS011;27025;51.986;5.984;2023-03-01T07:27:02;11.00;;;8.57;;
18378;SDS011;27025;51.986;5.984;2023-03-01T07:29:28;10.18;;;8.15;;
18378;SDS011;27025;51.986;5.984;2023-03-01T07:31:54;10.35;;;8.38;;
18378;SDS011;27025;51.986;5.984;2023-03-01T07:34:20;10.32;;;8.35;;
18378;SDS011;27025;51.986;5.984;2023-03-01T07:36:46;9.68;;;8.35;;
18378;SDS011;27025;51.986;5.984;2023-03-01T07:39:12;9.93;;;8.03;;
18378;SDS011;27025;51.986;5.984;2023-03-01T07:41:38;10.15;;;8.48;;
18378;SDS011;27025;51.986;5.984;2023-03-01T07:44:04;8.95;;;7.93;;
18378;SDS011;27025;51.986;5.984;2023-03-01T07:46:30;8.90;;;8.00;;
18378;SDS011;27025;51.986;5.984;2023-03-01T07:48:57;10.02;;;8.20;;
18378;SDS011;27025;51.986;5.984;2023-03-01T07:51:23;10.10;;;8.13;;
18378;SDS011;27025;51.986;5.984;2023-03-01T07:53:49;9.05;;;8.13;;
18378;SDS011;27025;51.986;5.984;2023-03-01T07:56:15;10.23;;;7.60;;
18378;SDS011;27025;51.986;5.984;2023-03-01T07:58:43;8.73;;;7.80;;
18378;SDS011;27025;51.986;5.984;2023-03-01T08:01:10;8.47;;;7.57;;
18378;SDS011;27025;51.986;5.984;2023-03-01T08:03:37;9.20;;;8.00;;
18378;SDS011;27025;51.986;5.984;2023-03-01T08:06:04;10.35;;;7.40;;
18378;SDS011;27025;51.986;5.984;2023-03-01T08:08:30;8.93;;;7.70;;
18378;SDS011;27025;51.986;5.984;2023-03-01T08:10:57;8.90;;;7.50;;
18378;SDS011;27025;51.986;5.984;2023-03-01T08:13:23;9.82;;;8.10;;
18378;SDS011;27025;51.986;5.984;2023-03-01T08:15:49;8.95;;;7.63;;
18378;SDS011;27025;51.986;5.984;2023-03-01T08:18:16;8.50;;;7.60;;
18378;SDS011;27025;51.986;5.984;2023-03-01T08:20:42;8.57;;;7.70;;
18378;SDS011;27025;51.986;5.984;2023-03-01T08:23:08;9.85;;;7.70;;
18378;SDS011;27025;51.986;5.984;2023-03-01T08:25:34;8.85;;;7.78;;
18378;SDS011;27025;51.986;5.984;2023-03-01T08:28:00;8.82;;;7.60;;
18378;SDS011;27025;51.986;5.984;2023-03-01T08:30:26;8.77;;;7.70;;
18378;SDS011;27025;51.986;5.984;2023-03-01T08:32:52;10.00;;;8.15;;
18378;SDS011;27025;51.986;5.984;2023-03-01T08:35:18;8.50;;;7.70;;
18378;SDS011;27025;51.986;5.984;2023-03-01T08:37:45;10.68;;;8.23;;
18378;SDS011;27025;51.986;5.984;2023-03-01T08:40:11;10.00;;;7.55;;
18378;SDS011;27025;51.986;5.984;2023-03-01T08:42:38;9.13;;;8.05;;
18378;SDS011;27025;51.986;5.984;2023-03-01T08:45:05;9.68;;;7.53;;
18378;SDS011;27025;51.986;5.984;2023-03-01T08:47:31;9.05;;;7.53;;
18378;SDS011;27025;51.986;5.984;2023-03-01T08:49:58;8.27;;;6.80;;
18378;SDS011;27025;51.986;5.984;2023-03-01T08:52:24;7.87;;;6.63;;
18378;SDS011;27025;51.986;5.984;2023-03-01T08:54:51;8.93;;;6.60;;
18378;SDS011;27025;51.986;5.984;2023-03-01T08:57:17;8.40;;;6.70;;
18378;SDS011;27025;51.986;5.984;2023-03-01T08:59:43;7.27;;;6.10;;
18378;SDS011;27025;51.986;5.984;2023-03-01T09:02:13;7.07;;;5.93;;
18378;SDS011;27025;51.986;5.984;2023-03-01T09:04:40;8.63;;;6.30;;
18378;SDS011;27025;51.986;5.984;2023-03-01T09:07:06;7.97;;;6.20;;
18378;SDS011;27025;51.986;5.984;2023-03-01T09:09:32;7.10;;;6.40;;
18378;SDS011;27025;51.986;5.984;2023-03-01T09:11:58;7.10;;;5.90;;
18378;SDS011;27025;51.986;5.984;2023-03-01T09:14:24;7.07;;;5.90;;
18378;SDS011;27025;51.986;5.984;2023-03-01T09:16:50;7.47;;;6.03;;
18378;SDS011;27025;51.986;5.984;2023-03-01T09:19:16;10.23;;;5.93;;
18378;SDS011;27025;51.986;5.984;2023-03-01T09:21:42;6.60;;;5.70;;
18378;SDS011;27025;51.986;5.984;2023-03-01T09:26:45;8.13;;;5.93;;
18378;SDS011;27025;51.986;5.984;2023-03-01T09:29:12;9.37;;;6.17;;
18378;SDS011;27025;51.986;5.984;2023-03-01T09:31:39;6.20;;;5.47;;
18378;SDS011;27025;51.986;5.984;2023-03-01T09:34:05;6.70;;;5.10;;
18378;SDS011;27025;51.986;5.984;2023-03-01T09:36:31;6.07;;;5.37;;
18378;SDS011;27025;51.986;5.984;2023-03-01T09:38:58;5.77;;;5.17;;
18378;SDS011;27025;51.986;5.984;2023-03-01T09:44:01;6.37;;;5.67;;
18378;SDS011;27025;51.986;5.984;2023-03-01T09:46:29;5.63;;;5.03;;
18378;SDS011;27025;51.986;5.984;2023-03-01T09:48:59;6.03;;;5.43;;
18378;SDS011;27025;51.986;5.984;2023-03-01T09:51:29;6.83;;;5.90;;
18378;SDS011;27025;51.986;5.984;2023-03-01T09:53:56;6.23;;;5.63;;
18378;SDS011;27025;51.986;5.984;2023-03-01T09:56:32;6.57;;;5.53;;
18378;SDS011;27025;51.986;5.984;2023-03-01T10:06:49;9.70;;;7.20;;
18378;SDS011;27025;51.986;5.984;2023-03-01T10:09:17;7.87;;;7.00;;
18378;SDS011;27025;51.986;5.984;2023-03-01T10:11:48;8.03;;;7.13;;
18378;SDS011;27025;51.986;5.984;2023-03-01T10:17:04;8.03;;;7.23;;
18378;SDS011;27025;51.986;5.984;2023-03-01T10:19:37;8.93;;;7.00;;
18378;SDS011;27025;51.986;5.984;2023-03-01T10:22:11;7.82;;;6.78;;
18378;SDS011;27025;51.986;5.984;2023-03-01T10:24:38;7.10;;;6.40;;
18378;SDS011;27025;51.986;5.984;2023-03-01T10:27:10;6.00;;;5.50;;
18378;SDS011;27025;51.986;5.984;2023-03-01T10:29:49;6.27;;;5.50;;
18378;SDS011;27025;51.986;5.984;2023-03-01T10:32:17;6.70;;;5.73;;
18378;SDS011;27025;51.986;5.984;2023-03-01T10:34:43;6.17;;;5.57;;
18378;SDS011;27025;51.986;5.984;2023-03-01T10:39:35;6.47;;;5.30;;
18378;SDS011;27025;51.986;5.984;2023-03-01T10:42:03;6.35;;;5.75;;
18378;SDS011;27025;51.986;5.984;2023-03-01T10:44:43;6.45;;;5.85;;
18378;SDS011;27025;51.986;5.984;2023-03-01T10:47:27;6.90;;;6.00;;
18378;SDS011;27025;51.986;5.984;2023-03-01T10:52:24;6.00;;;5.33;;
18378;SDS011;27025;51.986;5.984;2023-03-01T10:54:55;5.70;;;5.20;;
18378;SDS011;27025;51.986;5.984;2023-03-01T10:57:28;7.87;;;5.60;;
18378;SDS011;27025;51.986;5.984;2023-03-01T11:00:00;7.00;;;5.20;;
18378;SDS011;27025;51.986;5.984;2023-03-01T11:02:30;6.40;;;5.47;;
18378;SDS011;27025;51.986;5.984;2023-03-01T11:04:59;5.50;;;5.00;;
18378;SDS011;27025;51.986;5.984;2023-03-01T11:07:26;6.23;;;4.93;;
18378;SDS011;27025;51.986;5.984;2023-03-01T11:09:52;5.43;;;4.90;;
18378;SDS011;27025;51.986;5.984;2023-03-01T11:12:18;6.20;;;5.27;;
18378;SDS011;27025;51.986;5.984;2023-03-01T11:14:48;6.18;;;5.57;;
18378;SDS011;27025;51.986;5.984;2023-03-01T11:19:48;6.05;;;5.35;;
18378;SDS011;27025;51.986;5.984;2023-03-01T11:22:25;5.87;;;5.27;;
18378;SDS011;27025;51.986;5.984;2023-03-01T11:24:52;7.32;;;5.60;;
18378;SDS011;27025;51.986;5.984;2023-03-01T11:27:29;5.93;;;5.40;;
18378;SDS011;27025;51.986;5.984;2023-03-01T11:32:23;6.00;;;5.40;;
18378;SDS011;27025;51.986;5.984;2023-03-01T11:37:20;7.43;;;5.45;;
18378;SDS011;27025;51.986;5.984;2023-03-01T11:42:19;6.22;;;5.63;;
18378;SDS011;27025;51.986;5.984;2023-03-01T11:44:47;6.73;;;5.33;;
18378;SDS011;27025;51.986;5.984;2023-03-01T11:50:40;5.70;;;5.20;;
18378;SDS011;27025;51.986;5.984;2023-03-01T12:08:25;6.30;;;5.70;;
18378;SDS011;27025;51.986;5.984;2023-03-01T12:13:45;6.50;;;5.73;;
18378;SDS011;27025;51.986;5.984;2023-03-01T12:18:46;6.40;;;5.70;;
18378;SDS011;27025;51.986;5.984;2023-03-01T12:26:42;10.40;;;5.30;;
18378;SDS011;27025;51.986;5.984;2023-03-01T12:29:23;6.33;;;5.63;;
18378;SDS011;27025;51.986;5.984;2023-03-01T12:31:58;7.57;;;5.40;;
18378;SDS011;27025;51.986;5.984;2023-03-01T12:34:33;10.93;;;5.57;;
18378;SDS011;27025;51.986;5.984;2023-03-01T12:39:43;10.90;;;5.53;;
18378;SDS011;27025;51.986;5.984;2023-03-01T12:50:17;10.47;;;5.70;;
18378;SDS011;27025;51.986;5.984;2023-03-01T12:52:46;5.60;;;4.90;;
18378;SDS011;27025;51.986;5.984;2023-03-01T12:55:24;20.95;;;6.28;;
18378;SDS011;27025;51.986;5.984;2023-03-01T12:57:55;7.33;;;5.07;;
18378;SDS011;27025;51.986;5.984;2023-03-01T13:02:58;25.77;;;6.30;;
18378;SDS011;27025;51.986;5.984;2023-03-01T13:11:05;6.97;;;5.45;;
18378;SDS011;27025;51.986;5.984;2023-03-01T13:13:31;6.78;;;5.32;;
18378;SDS011;27025;51.986;5.984;2023-03-01T13:15:57;5.93;;;5.20;;
18378;SDS011;27025;51.986;5.984;2023-03-01T13:18:43;6.10;;;5.00;;
18378;SDS011;27025;51.986;5.984;2023-03-01T13:21:09;6.57;;;5.20;;
18378;SDS011;27025;51.986;5.984;2023-03-01T13:23:38;7.25;;;5.60;;
18378;SDS011;27025;51.986;5.984;2023-03-01T13:26:10;6.20;;;5.60;;
18378;SDS011;27025;51.986;5.984;2023-03-01T13:31:07;5.43;;;4.87;;
18378;SDS011;27025;51.986;5.984;2023-03-01T13:33:39;6.57;;;5.40;;
18378;SDS011;27025;51.986;5.984;2023-03-01T13:36:05;6.75;;;5.60;;
18378;SDS011;27025;51.986;5.984;2023-03-01T13:41:47;5.85;;;5.20;;
18378;SDS011;27025;51.986;5.984;2023-03-01T13:46:52;7.00;;;5.67;;
18378;SDS011;27025;51.986;5.984;2023-03-01T13:49:20;6.10;;;5.50;;
18378;SDS011;27025;51.986;5.984;2023-03-01T13:51:47;6.15;;;5.45;;
18378;SDS011;27025;51.986;5.984;2023-03-01T13:54:14;6.57;;;5.47;;
18378;SDS011;27025;51.986;5.984;2023-03-01T13:56:40;6.38;;;5.50;;
18378;SDS011;27025;51.986;5.984;2023-03-01T13:59:27;6.13;;;5.40;;
18378;SDS011;27025;51.986;5.984;2023-03-01T14:01:59;6.43;;;5.68;;
18378;SDS011;27025;51.986;5.984;2023-03-01T14:06:52;6.27;;;5.60;;
18378;SDS011;27025;51.986;5.984;2023-03-01T14:09:33;7.55;;;5.78;;
18378;SDS011;27025;51.986;5.984;2023-03-01T14:20:00;6.60;;;5.68;;
18378;SDS011;27025;51.986;5.984;2023-03-01T14:22:27;6.75;;;5.80;;
18378;SDS011;27025;51.986;5.984;2023-03-01T14:24:58;6.80;;;5.70;;
18378;SDS011;27025;51.986;5.984;2023-03-01T14:27:26;6.85;;;5.93;;
18378;SDS011;27025;51.986;5.984;2023-03-01T14:29:59;6.33;;;5.73;;
18378;SDS011;27025;51.986;5.984;2023-03-01T14:32:27;6.67;;;5.70;;
18378;SDS011;27025;51.986;5.984;2023-03-01T14:34:53;6.70;;;6.00;;
18378;SDS011;27025;51.986;5.984;2023-03-01T14:37:24;7.20;;;5.65;;
18378;SDS011;27025;51.986;5.984;2023-03-01T14:39:51;6.57;;;5.82;;
18378;SDS011;27025;51.986;5.984;2023-03-01T14:42:18;6.73;;;5.30;;
18378;SDS011;27025;51.986;5.984;2023-03-01T14:44:46;6.63;;;5.68;;
18378;SDS011;27025;51.986;5.984;2023-03-01T14:47:15;6.32;;;5.68;;
18378;SDS011;27025;51.986;5.984;2023-03-01T14:49:41;6.88;;;5.40;;
18378;SDS011;27025;51.986;5.984;2023-03-01T14:52:17;6.63;;;4.90;;
18378;SDS011;27025;51.986;5.984;2023-03-01T14:54:48;6.33;;;5.30;;
18378;SDS011;27025;51.986;5.984;2023-03-01T14:57:16;5.73;;;5.13;;
18378;SDS011;27025;51.986;5.984;2023-03-01T14:59:43;6.30;;;5.17;;
18378;SDS011;27025;51.986;5.984;2023-03-01T15:02:11;7.17;;;5.13;;
18378;SDS011;27025;51.986;5.984;2023-03-01T15:04:42;6.07;;;5.00;;
18378;SDS011;27025;51.986;5.984;2023-03-01T15:07:09;7.23;;;4.97;;
18378;SDS011;27025;51.986;5.984;2023-03-01T15:09:39;5.77;;;5.13;;
18378;SDS011;27025;51.986;5.984;2023-03-01T15:14:50;5.87;;;5.27;;
18378;SDS011;27025;51.986;5.984;2023-03-01T15:17:25;5.67;;;5.07;;
18378;SDS011;27025;51.986;5.984;2023-03-01T15:19:52;6.33;;;5.00;;
18378;SDS011;27025;51.986;5.984;2023-03-01T15:22:18;6.43;;;4.70;;
18378;SDS011;27025;51.986;5.984;2023-03-01T15:24:48;6.70;;;5.23;;
18378;SDS011;27025;51.986;5.984;2023-03-01T15:27:16;4.90;;;4.40;;
18378;SDS011;27025;51.986;5.984;2023-03-01T15:29:47;7.13;;;5.13;;
18378;SDS011;27025;51.986;5.984;2023-03-01T15:34:52;5.03;;;4.50;;
18378;SDS011;27025;51.986;5.984;2023-03-01T15:40:03;4.93;;;4.43;;
18378;SDS011;27025;51.986;5.984;2023-03-01T15:42:42;7.97;;;4.30;;
18378;SDS011;27025;51.986;5.984;2023-03-01T15:47:39;4.90;;;4.40;;
18378;SDS011;27025;51.986;5.984;2023-03-01T15:50:11;7.37;;;4.40;;
18378;SDS011;27025;51.986;5.984;2023-03-01T15:52:41;5.70;;;4.00;;
18378;SDS011;27025;51.986;5.984;2023-03-01T15:55:15;4.70;;;4.27;;
18378;SDS011;27025;51.986;5.984;2023-03-01T15:57:41;5.47;;;4.37;;
18378;SDS011;27025;51.986;5.984;2023-03-01T16:00:11;4.73;;;4.20;;
18378;SDS011;27025;51.986;5.984;2023-03-01T16:02:38;5.83;;;4.00;;
18378;SDS011;27025;51.986;5.984;2023-03-01T16:05:04;7.23;;;4.73;;
18378;SDS011;27025;51.986;5.984;2023-03-01T16:07:30;5.33;;;4.57;;
18378;SDS011;27025;51.986;5.984;2023-03-01T16:09:57;5.20;;;4.57;;
18378;SDS011;27025;51.986;5.984;2023-03-01T16:12:23;5.43;;;4.50;;
18378;SDS011;27025;51.986;5.984;2023-03-01T16:14:49;4.67;;;4.13;;
18378;SDS011;27025;51.986;5.984;2023-03-01T16:17:18;4.93;;;4.30;;
18378;SDS011;27025;51.986;5.984;2023-03-01T16:19:44;5.20;;;4.40;;
18378;SDS011;27025;51.986;5.984;2023-03-01T16:22:10;4.33;;;3.93;;
18378;SDS011;27025;51.986;5.984;2023-03-01T16:24:36;5.53;;;4.03;;
18378;SDS011;27025;51.986;5.984;2023-03-01T16:27:03;6.70;;;4.47;;
18378;SDS011;27025;51.986;5.984;2023-03-01T16:29:29;7.00;;;4.20;;
18378;SDS011;27025;51.986;5.984;2023-03-01T16:31:55;7.47;;;4.50;;
18378;SDS011;27025;51.986;5.984;2023-03-01T16:34:21;5.40;;;4.53;;
18378;SDS011;27025;51.986;5.984;2023-03-01T16:36:48;6.33;;;3.80;;
18378;SDS011;27025;51.986;5.984;2023-03-01T16:39:14;6.57;;;4.20;;
18378;SDS011;27025;51.986;5.984;2023-03-01T16:41:41;4.60;;;4.10;;
18378;SDS011;27025;51.986;5.984;2023-03-01T16:44:07;6.17;;;3.77;;
18378;SDS011;27025;51.986;5.984;2023-03-01T16:46:33;6.20;;;4.00;;
18378;SDS011;27025;51.986;5.984;2023-03-01T16:48:59;4.40;;;3.93;;
18378;SDS011;27025;51.986;5.984;2023-03-01T16:51:25;4.97;;;3.93;;